Time;durP1;ratioP1;P1;durP2;ratioP2;P2;SDS_P1;SDS_P2;PMS_P1;PMS_P2;Temp;Humidity;BMP_temperature;BMP_pressure;BME280_temperature;BME280_humidity;BME280_pressure;Samples;Min_cycle;Max_cycle;Signal;HPM_P1;HPM_P2
2021/11/11 00:02:25;;;;;;;3.85;0.68;;;;;;;;;;5092605;28;20028;-60
2021/11/11 00:04:50;;;;;;;1.48;0.50;;;;;;;;;;5089850;28;20047;-60
2021/11/11 00:07:16;;;;;;;6.45;0.68;;;;;;;;;;5075216;28;20251;-59
2021/11/11 00:09:42;;;;;;;3.47;0.77;;;;;;;;;;5092961;28;20085;-60
2021/11/11 00:12:08;;;;;;;0.85;0.40;;;;;;;;;;5088014;28;20169;-60
2021/11/11 00:14:33;;;;;;;5.40;0.55;;;;;;;;;;5094823;28;20027;-60
2021/11/11 00:16:58;;;;;;;4.47;0.50;;;;;;;;;;5092821;28;20039;-60
2021/11/11 00:19:24;;;;;;;5.68;1.10;;;;;;;;;;5094909;28;20035;-60
2021/11/11 00:21:50;;;;;;;4.20;1.73;;;;;;;;;;5093044;28;20098;-59
2021/11/11 00:24:18;;;;;;;3.13;0.60;;;;;;;;;;5091380;28;20051;-60
2021/11/11 00:26:44;;;;;;;3.20;0.80;;;;;;;;;;5095932;28;20032;-60
2021/11/11 00:29:09;;;;;;;2.28;0.60;;;;;;;;;;5091005;28;20062;-60
2021/11/11 00:31:35;;;;;;;1.17;0.32;;;;;;;;;;5091264;28;20024;-59
2021/11/11 00:34:00;;;;;;;6.13;0.68;;;;;;;;;;5094461;28;20047;-58
2021/11/11 00:36:26;;;;;;;1.98;0.50;;;;;;;;;;5072106;28;20035;-59
2021/11/11 00:38:52;;;;;;;0.93;0.30;;;;;;;;;;5090663;28;20043;-59
2021/11/11 00:41:17;;;;;;;1.75;0.43;;;;;;;;;;5092521;28;20116;-58
2021/11/11 00:43:43;;;;;;;5.28;0.70;;;;;;;;;;5095319;28;22372;-58
2021/11/11 00:46:09;;;;;;;2.55;0.60;;;;;;;;;;5093659;28;20042;-58
2021/11/11 00:48:35;;;;;;;5.88;1.35;;;;;;;;;;5091517;28;20470;-58
2021/11/11 00:51:01;;;;;;;10.50;2.08;;;;;;;;;;5094943;28;20031;-58
2021/11/11 00:53:26;;;;;;;7.32;2.20;;;;;;;;;;5089555;28;20491;-59
2021/11/11 00:55:52;;;;;;;7.63;1.48;;;;;;;;;;5091022;28;20197;-59
2021/11/11 00:58:17;;;;;;;2.85;0.70;;;;;;;;;;5094224;28;20144;-59
2021/11/11 01:00:44;;;;;;;2.15;0.50;;;;;;;;;;5072992;28;20074;-58
2021/11/11 01:03:11;;;;;;;4.15;0.63;;;;;;;;;;5092494;28;20040;-59
2021/11/11 01:05:37;;;;;;;5.13;0.80;;;;;;;;;;5090638;28;20039;-59
2021/11/11 01:08:03;;;;;;;3.88;0.60;;;;;;;;;;5090206;28;20798;-60
2021/11/11 01:10:29;;;;;;;6.25;0.70;;;;;;;;;;5093773;28;20062;-60
2021/11/11 01:12:55;;;;;;;2.25;1.00;;;;;;;;;;5091347;28;20514;-59
2021/11/11 01:15:28;;;;;;;4.45;0.68;;;;;;;;;;5094035;28;20036;-59
2021/11/11 01:17:53;;;;;;;;;;;;;;;;;;5092523;28;20019;-59
2021/11/11 01:20:19;;;;;;;2.38;0.30;;;;;;;;;;5089101;28;19926;-59
2021/11/11 01:22:48;;;;;;;3.90;0.60;;;;;;;;;;5091007;28;20027;-60
2021/11/11 01:25:17;;;;;;;1.88;0.43;;;;;;;;;;5088800;28;20056;-60
2021/11/11 01:27:43;;;;;;;2.85;0.47;;;;;;;;;;5088911;28;20069;-59
2021/11/11 01:30:09;;;;;;;2.67;0.25;;;;;;;;;;5094313;28;20035;-60
2021/11/11 01:32:35;;;;;;;1.48;0.60;;;;;;;;;;5095123;28;20028;-59
2021/11/11 01:35:02;;;;;;;1.17;0.40;;;;;;;;;;5099323;28;20115;-59
2021/11/11 01:37:28;;;;;;;3.63;0.50;;;;;;;;;;5097500;28;20126;-60
2021/11/11 01:39:54;;;;;;;2.03;0.40;;;;;;;;;;5096649;28;20106;-60
2021/11/11 01:42:19;;;;;;;3.00;0.40;;;;;;;;;;5097039;28;20057;-59
2021/11/11 01:44:55;;;;;;;2.58;0.60;;;;;;;;;;5100263;28;20081;-60
2021/11/11 01:47:22;;;;;;;5.65;1.92;;;;;;;;;;5097286;28;20046;-59
2021/11/11 01:49:48;;;;;;;3.05;0.73;;;;;;;;;;5098090;28;20034;-60
2021/11/11 01:52:17;;;;;;;2.47;0.50;;;;;;;;;;5096932;28;20092;-60
2021/11/11 01:54:43;;;;;;;2.78;0.85;;;;;;;;;;5099472;28;20016;-60
2021/11/11 01:57:08;;;;;;;3.75;0.80;;;;;;;;;;5093132;28;20511;-59
2021/11/11 01:59:34;;;;;;;3.47;0.70;;;;;;;;;;5095870;28;20031;-60
2021/11/11 02:02:00;;;;;;;2.90;0.50;;;;;;;;;;5100425;28;20035;-60
2021/11/11 02:04:26;;;;;;;6.22;0.60;;;;;;;;;;5096398;28;20092;-60
2021/11/11 02:06:52;;;;;;;1.58;0.40;;;;;;;;;;5097062;28;20379;-60
2021/11/11 02:09:18;;;;;;;2.88;0.55;;;;;;;;;;5098482;28;20032;-60
2021/11/11 02:11:47;;;;;;;5.28;0.80;;;;;;;;;;5094598;28;20044;-60
2021/11/11 02:14:14;;;;;;;5.22;0.65;;;;;;;;;;5094891;28;20035;-59
2021/11/11 02:16:40;;;;;;;2.95;0.63;;;;;;;;;;5093977;28;20490;-60
2021/11/11 02:19:08;;;;;;;2.70;0.77;;;;;;;;;;5093410;28;20051;-59
2021/11/11 02:21:35;;;;;;;2.15;0.60;;;;;;;;;;5094191;28;20020;-59
2021/11/11 02:24:01;;;;;;;3.92;0.50;;;;;;;;;;5103600;28;20550;-59
2021/11/11 02:26:26;;;;;;;1.55;0.55;;;;;;;;;;5094915;28;20119;-59
2021/11/11 02:28:52;;;;;;;8.55;0.82;;;;;;;;;;5097210;28;20024;-59
2021/11/11 02:31:17;;;;;;;2.90;0.63;;;;;;;;;;5095804;28;20028;-58
2021/11/11 02:33:52;;;;;;;4.85;0.70;;;;;;;;;;5099491;28;20024;-59
2021/11/11 02:36:18;;;;;;;5.43;0.50;;;;;;;;;;5092790;28;20505;-59
2021/11/11 02:38:43;;;;;;;7.75;0.68;;;;;;;;;;5095255;28;20036;-59
2021/11/11 02:41:09;;;;;;;3.53;0.98;;;;;;;;;;5093566;28;20040;-59
2021/11/11 02:43:35;;;;;;;2.92;1.00;;;;;;;;;;5096664;28;20683;-59
2021/11/11 02:46:00;;;;;;;5.15;0.55;;;;;;;;;;5096298;27;20026;-59
2021/11/11 02:48:26;;;;;;;1.65;0.50;;;;;;;;;;5093422;28;20085;-59
2021/11/11 02:50:53;;;;;;;2.55;0.60;;;;;;;;;;5091533;28;20065;-59
2021/11/11 02:53:19;;;;;;;5.05;0.60;;;;;;;;;;5092733;28;20047;-59
2021/11/11 02:55:46;;;;;;;2.72;0.50;;;;;;;;;;5095696;28;20409;-59
2021/11/11 02:58:11;;;;;;;3.70;0.50;;;;;;;;;;5096989;28;20490;-59
2021/11/11 03:01:07;;;;;;;2.83;0.40;;;;;;;;;;5091601;28;20081;-59
2021/11/11 03:03:33;;;;;;;3.85;0.68;;;;;;;;;;5097212;27;20034;-59
2021/11/11 03:05:58;;;;;;;0.55;0.13;;;;;;;;;;5089410;28;20077;-59
2021/11/11 03:08:24;;;;;;;3.90;0.50;;;;;;;;;;5092716;28;20028;-59
2021/11/11 03:10:50;;;;;;;2.92;0.50;;;;;;;;;;5092049;28;20101;-59
2021/11/11 03:13:17;;;;;;;3.20;0.45;;;;;;;;;;5093847;28;20337;-59
2021/11/11 03:15:43;;;;;;;3.28;0.40;;;;;;;;;;5097532;28;20043;-59
2021/11/11 03:18:11;;;;;;;1.52;0.30;;;;;;;;;;5075631;28;20039;-59
2021/11/11 03:20:36;;;;;;;6.78;0.40;;;;;;;;;;5096750;28;20023;-59
2021/11/11 03:23:04;;;;;;;4.22;0.50;;;;;;;;;;5095049;28;20028;-59
2021/11/11 03:25:31;;;;;;;2.30;0.32;;;;;;;;;;5095450;28;20457;-59
2021/11/11 03:27:58;;;;;;;2.30;0.60;;;;;;;;;;5096599;27;20030;-59
2021/11/11 03:30:25;;;;;;;1.45;0.20;;;;;;;;;;5092697;28;20076;-60
2021/11/11 03:32:51;;;;;;;0.30;0.10;;;;;;;;;;5096783;28;20044;-60
2021/11/11 03:35:17;;;;;;;0.20;0.10;;;;;;;;;;5095237;27;20040;-60
2021/11/11 03:37:44;;;;;;;5.70;0.40;;;;;;;;;;5095627;27;20453;-60
2021/11/11 03:40:14;;;;;;;3.03;0.20;;;;;;;;;;5091740;28;20031;-59
2021/11/11 03:42:40;;;;;;;1.10;0.20;;;;;;;;;;5094771;28;20577;-60
2021/11/11 03:45:08;;;;;;;1.38;0.10;;;;;;;;;;5098791;27;20028;-59
2021/11/11 03:47:34;;;;;;;2.05;0.13;;;;;;;;;;5093950;28;20024;-59
2021/11/11 03:49:59;;;;;;;5.45;0.20;;;;;;;;;;5094686;28;20039;-60
2021/11/11 03:52:25;;;;;;;4.03;0.30;;;;;;;;;;5079482;28;20383;-60
2021/11/11 03:54:51;;;;;;;0.20;0.10;;;;;;;;;;5091905;28;20031;-60
2021/11/11 03:57:17;;;;;;;0.52;0.10;;;;;;;;;;5091978;28;20051;-60
2021/11/11 03:59:42;;;;;;;1.45;0.20;;;;;;;;;;5092015;28;20027;-60
2021/11/11 04:02:13;;;;;;;2.25;0.10;;;;;;;;;;5095672;28;20088;-60
2021/11/11 04:04:39;;;;;;;2.25;0.20;;;;;;;;;;5096833;28;20152;-59
2021/11/11 04:07:05;;;;;;;1.65;0.60;;;;;;;;;;5093838;28;20053;-59
2021/11/11 04:09:30;;;;;;;2.28;0.25;;;;;;;;;;5100303;28;20102;-59
2021/11/11 04:11:56;;;;;;;1.98;0.30;;;;;;;;;;5092952;28;20074;-58
2021/11/11 04:14:21;;;;;;;4.47;0.20;;;;;;;;;;5090632;28;20089;-58
2021/11/11 04:16:47;;;;;;;1.75;0.20;;;;;;;;;;5094799;28;20077;-59
2021/11/11 04:19:13;;;;;;;1.02;0.20;;;;;;;;;;5095232;28;20034;-59
2021/11/11 04:21:40;;;;;;;6.20;0.10;;;;;;;;;;5093393;28;20134;-59
2021/11/11 04:24:06;;;;;;;0.52;0.10;;;;;;;;;;5091220;28;20039;-59
2021/11/11 04:26:34;;;;;;;2.13;0.10;;;;;;;;;;5097908;28;20020;-60
2021/11/11 04:31:31;;;;;;;0.85;0.13;;;;;;;;;;5093333;28;20028;-60
2021/11/11 04:34:04;;;;;;;0.60;0.20;;;;;;;;;;5095979;28;20525;-59
2021/11/11 04:44:29;;;;;;;3.00;0.10;;;;;;;;;;5101685;28;20038;-59
2021/11/11 04:47:14;;;;;;;0.40;0.10;;;;;;;;;;5091049;28;20040;-59
2021/11/11 05:05:35;;;;;;;1.42;0.25;;;;;;;;;;5092393;28;20423;-59
2021/11/11 05:08:00;;;;;;;0.43;0.20;;;;;;;;;;5089800;28;20027;-59
2021/11/11 05:10:26;;;;;;;6.50;1.02;;;;;;;;;;5077485;28;20055;-59
2021/11/11 05:12:52;;;;;;;0.82;0.20;;;;;;;;;;5091670;28;20031;-60
2021/11/11 05:15:18;;;;;;;8.30;0.57;;;;;;;;;;5089745;28;20494;-59
2021/11/11 05:17:47;;;;;;;2.55;0.30;;;;;;;;;;5088731;28;20057;-59
2021/11/11 05:20:14;;;;;;;1.05;0.30;;;;;;;;;;5094156;28;20030;-59
2021/11/11 05:22:41;;;;;;;0.77;0.20;;;;;;;;;;5074452;28;20475;-59
2021/11/11 05:25:07;;;;;;;0.82;0.40;;;;;;;;;;5097481;28;20490;-60
2021/11/11 05:27:35;;;;;;;4.28;0.82;;;;;;;;;;5096624;28;20028;-60
2021/11/11 05:30:03;;;;;;;1.10;0.30;;;;;;;;;;5094357;28;20038;-60
2021/11/11 05:32:29;;;;;;;0.40;0.13;;;;;;;;;;5094221;28;20027;-59
2021/11/11 05:34:55;;;;;;;3.83;0.32;;;;;;;;;;5089296;28;20036;-60
2021/11/11 05:37:20;;;;;;;0.47;0.20;;;;;;;;;;5094114;28;20067;-59
2021/11/11 05:39:45;;;;;;;0.57;0.20;;;;;;;;;;5089211;28;20016;-59
2021/11/11 05:42:11;;;;;;;0.52;0.20;;;;;;;;;;5091577;28;20486;-59
2021/11/11 05:44:37;;;;;;;1.83;0.38;;;;;;;;;;5095610;28;20031;-57
2021/11/11 05:47:02;;;;;;;4.78;0.40;;;;;;;;;;5094268;28;20076;-58
2021/11/11 05:49:28;;;;;;;0.60;0.20;;;;;;;;;;5094394;28;20486;-58
2021/11/11 05:51:53;;;;;;;3.30;0.40;;;;;;;;;;5091711;28;20024;-59
2021/11/11 05:54:20;;;;;;;3.65;0.43;;;;;;;;;;5092348;28;20468;-58
2021/11/11 05:56:46;;;;;;;0.13;0.10;;;;;;;;;;5095952;28;20111;-58
2021/11/11 05:59:12;;;;;;;2.08;0.20;;;;;;;;;;5090509;28;20044;-61
2021/11/11 06:01:38;;;;;;;3.05;0.20;;;;;;;;;;5091465;28;20036;-59
2021/11/11 06:04:04;;;;;;;2.70;0.90;;;;;;;;;;5090311;28;20038;-57
2021/11/11 06:06:30;;;;;;;0.40;0.10;;;;;;;;;;5098209;28;20126;-57
2021/11/11 06:08:56;;;;;;;3.03;0.20;;;;;;;;;;5089180;28;20254;-59
2021/11/11 06:11:21;;;;;;;4.88;0.28;;;;;;;;;;5089491;28;20655;-58
2021/11/11 06:13:48;;;;;;;0.95;0.28;;;;;;;;;;5090433;28;20039;-58
2021/11/11 06:16:13;;;;;;;1.70;0.20;;;;;;;;;;5078601;28;20052;-58
2021/11/11 06:18:39;;;;;;;0.73;0.30;;;;;;;;;;5090444;28;20683;-59
2021/11/11 06:21:05;;;;;;;2.28;0.30;;;;;;;;;;5095082;28;20681;-58
2021/11/11 06:23:33;;;;;;;9.23;0.47;;;;;;;;;;5078637;28;20406;-58
2021/11/11 06:25:59;;;;;;;0.93;0.40;;;;;;;;;;5094878;28;20035;-59
2021/11/11 06:28:25;;;;;;;0.73;0.32;;;;;;;;;;5096039;28;20024;-58
2021/11/11 06:30:50;;;;;;;0.73;0.30;;;;;;;;;;5101582;27;20043;-58
2021/11/11 06:33:16;;;;;;;0.30;0.20;;;;;;;;;;5090811;28;20036;-59
2021/11/11 06:35:42;;;;;;;1.60;0.30;;;;;;;;;;5091060;28;20047;-59
2021/11/11 06:38:08;;;;;;;2.50;0.20;;;;;;;;;;5095462;28;20036;-58
2021/11/11 06:40:34;;;;;;;1.48;0.20;;;;;;;;;;5079013;28;20177;-59
2021/11/11 06:43:02;;;;;;;1.85;0.30;;;;;;;;;;5098483;28;20088;-59
2021/11/11 06:45:34;;;;;;;2.47;0.28;;;;;;;;;;5096081;28;20038;-58
2021/11/11 06:47:59;;;;;;;3.22;0.40;;;;;;;;;;5094966;28;20040;-58
2021/11/11 06:50:25;;;;;;;0.47;0.15;;;;;;;;;;5074192;28;20115;-58
2021/11/11 06:52:51;;;;;;;1.83;0.40;;;;;;;;;;5096514;28;20035;-59
2021/11/11 06:55:16;;;;;;;3.10;0.60;;;;;;;;;;5093276;28;20105;-57
2021/11/11 06:57:42;;;;;;;6.10;0.50;;;;;;;;;;5097440;27;20093;-59
2021/11/11 07:00:10;;;;;;;0.65;0.20;;;;;;;;;;5099620;27;20039;-58
2021/11/11 07:02:36;;;;;;;7.85;0.52;;;;;;;;;;5098123;27;20033;-58
2021/11/11 07:05:02;;;;;;;4.78;0.77;;;;;;;;;;5101055;27;20494;-59
2021/11/11 07:07:28;;;;;;;2.65;0.32;;;;;;;;;;5101785;27;20020;-59
2021/11/11 07:09:53;;;;;;;3.60;0.38;;;;;;;;;;5104934;27;20024;-58
2021/11/11 07:12:19;;;;;;;7.22;0.65;;;;;;;;;;5102461;27;20520;-59
2021/11/11 07:14:45;;;;;;;2.20;0.80;;;;;;;;;;5108918;27;20034;-58
2021/11/11 07:17:10;;;;;;;2.35;0.40;;;;;;;;;;5100652;27;20035;-58
2021/11/11 07:19:36;;;;;;;4.65;0.88;;;;;;;;;;5101409;27;20367;-58
2021/11/11 07:22:05;;;;;;;3.22;0.63;;;;;;;;;;5101940;27;20031;-58
2021/11/11 07:24:31;;;;;;;4.60;0.88;;;;;;;;;;5097189;28;20019;-59
2021/11/11 07:26:58;;;;;;;2.08;0.63;;;;;;;;;;5090319;28;20020;-58
2021/11/11 07:29:24;;;;;;;2.47;0.65;;;;;;;;;;5097109;28;20495;-58
2021/11/11 07:31:54;;;;;;;4.75;0.90;;;;;;;;;;5091574;28;20058;-59
2021/11/11 07:34:24;;;;;;;10.63;1.20;;;;;;;;;;5092353;28;20043;-58
2021/11/11 07:36:52;;;;;;;10.13;1.02;;;;;;;;;;5092810;28;20043;-59
2021/11/11 07:39:18;;;;;;;8.98;0.90;;;;;;;;;;5100498;27;20034;-58
2021/11/11 07:41:45;;;;;;;8.65;1.17;;;;;;;;;;5093377;28;20030;-58
2021/11/11 07:44:11;;;;;;;5.65;1.00;;;;;;;;;;5099034;28;20506;-58
2021/11/11 07:46:37;;;;;;;7.15;1.15;;;;;;;;;;5099038;28;20016;-58
2021/11/11 07:49:04;;;;;;;5.70;1.02;;;;;;;;;;5097230;28;20032;-59
2021/11/11 07:51:29;;;;;;;5.57;1.20;;;;;;;;;;5095069;28;20110;-59
2021/11/11 07:53:56;;;;;;;2.38;0.70;;;;;;;;;;5094460;28;20111;-59
2021/11/11 07:56:21;;;;;;;6.28;0.95;;;;;;;;;;5092359;28;20123;-59
2021/11/11 07:58:47;;;;;;;2.63;0.70;;;;;;;;;;5078408;28;20131;-59
2021/11/11 08:01:12;;;;;;;13.10;0.90;;;;;;;;;;5090886;28;20026;-59
2021/11/11 08:03:38;;;;;;;6.38;1.00;;;;;;;;;;5094272;28;20028;-59
2021/11/11 08:06:04;;;;;;;3.58;0.88;;;;;;;;;;5087024;27;20460;-59
2021/11/11 08:08:29;;;;;;;2.15;0.70;;;;;;;;;;5091986;28;20030;-59
2021/11/11 08:10:56;;;;;;;7.25;0.80;;;;;;;;;;5093790;28;20679;-59
2021/11/11 08:13:22;;;;;;;4.28;0.50;;;;;;;;;;5095560;28;20308;-59
2021/11/11 08:15:47;;;;;;;1.38;0.52;;;;;;;;;;5088416;28;20234;-59
2021/11/11 08:18:13;;;;;;;2.83;0.60;;;;;;;;;;5096480;27;20039;-78
2021/11/11 08:20:38;;;;;;;3.47;0.60;;;;;;;;;;5096068;28;20024;-74
2021/11/11 08:23:05;;;;;;;4.32;0.77;;;;;;;;;;5095735;27;20019;-73
2021/11/11 08:25:31;;;;;;;9.70;0.80;;;;;;;;;;5097631;27;20441;-75
2021/11/11 08:27:56;;;;;;;3.58;0.60;;;;;;;;;;5093391;28;20511;-71
2021/11/11 08:30:22;;;;;;;6.25;0.70;;;;;;;;;;5092309;28;20035;-72
2021/11/11 08:32:51;;;;;;;11.05;1.30;;;;;;;;;;5096386;28;20081;-71
2021/11/11 08:35:17;;;;;;;8.15;1.00;;;;;;;;;;5099685;28;20489;-70
2021/11/11 08:37:44;;;;;;;2.42;1.13;;;;;;;;;;5093809;28;20031;-69
2021/11/11 08:40:11;;;;;;;4.07;0.75;;;;;;;;;;5095667;28;20053;-70
2021/11/11 08:42:37;;;;;;;4.93;0.85;;;;;;;;;;5095924;28;20077;-69
2021/11/11 08:45:04;;;;;;;3.65;1.10;;;;;;;;;;5091515;28;20032;-70
2021/11/11 08:47:29;;;;;;;3.42;0.82;;;;;;;;;;5090286;28;20022;-70
2021/11/11 08:49:56;;;;;;;3.47;0.90;;;;;;;;;;5098993;28;20391;-71
2021/11/11 08:52:22;;;;;;;2.60;0.80;;;;;;;;;;5095845;28;20082;-71
2021/11/11 08:54:50;;;;;;;2.80;0.85;;;;;;;;;;5095730;28;20051;-72
2021/11/11 08:57:16;;;;;;;4.53;1.10;;;;;;;;;;5091177;28;20086;-71
2021/11/11 08:59:41;;;;;;;5.97;0.90;;;;;;;;;;5094301;28;20047;-70
2021/11/11 09:02:10;;;;;;;6.97;1.17;;;;;;;;;;5094009;28;20110;-69
2021/11/11 09:04:36;;;;;;;12.07;1.50;;;;;;;;;;5090349;28;20030;-70
2021/11/11 09:07:03;;;;;;;5.40;1.40;;;;;;;;;;5091593;28;20103;-66
2021/11/11 09:09:29;;;;;;;5.70;1.23;;;;;;;;;;5088064;28;20028;-70
2021/11/11 09:11:55;;;;;;;4.50;1.10;;;;;;;;;;5080899;28;20055;-71
2021/11/11 09:14:20;;;;;;;1.48;0.52;;;;;;;;;;5092809;28;20028;-71
2021/11/11 09:16:46;;;;;;;1.95;0.40;;;;;;;;;;5099163;28;20030;-74
2021/11/11 09:19:13;;;;;;;5.25;0.70;;;;;;;;;;5076961;28;20036;-64
2021/11/11 09:21:40;;;;;;;4.18;0.50;;;;;;;;;;5097327;28;20073;-67
2021/11/11 09:24:08;;;;;;;7.13;0.30;;;;;;;;;;5087511;28;20035;-63
2021/11/11 09:26:34;;;;;;;0.90;0.30;;;;;;;;;;5100369;28;20020;-61
2021/11/11 09:29:00;;;;;;;0.88;0.43;;;;;;;;;;5100767;28;20034;-61
2021/11/11 09:31:26;;;;;;;1.85;0.20;;;;;;;;;;5091526;28;20059;-62
2021/11/11 09:33:52;;;;;;;4.68;0.50;;;;;;;;;;5093540;28;20466;-61
2021/11/11 09:36:19;;;;;;;0.17;0.10;;;;;;;;;;5090135;28;20039;-61
2021/11/11 09:38:45;;;;;;;0.40;0.10;;;;;;;;;;5093088;28;20588;-61
2021/11/11 09:41:15;;;;;;;1.10;0.50;;;;;;;;;;5095131;28;20049;-61
2021/11/11 09:43:41;;;;;;;1.48;0.30;;;;;;;;;;5095089;28;20141;-61
2021/11/11 09:46:12;;;;;;;1.65;0.10;;;;;;;;;;5096195;28;20058;-61
2021/11/11 09:48:39;;;;;;;0.10;0.00;;;;;;;;;;5099346;28;20111;-61
2021/11/11 09:51:06;;;;;;;0.38;0.10;;;;;;;;;;5093137;28;20035;-61
2021/11/11 09:53:34;;;;;;;0.65;0.10;;;;;;;;;;5105228;28;20066;-62
2021/11/11 09:58:45;;;;;;;0.35;0.10;;;;;;;;;;5097332;28;20039;-61
2021/11/11 10:01:15;;;;;;;2.45;0.65;;;;;;;;;;5098884;28;20049;-62
2021/11/11 10:03:42;;;;;;;0.30;0.10;;;;;;;;;;5089262;28;20372;-62
2021/11/11 10:06:15;;;;;;;2.05;0.10;;;;;;;;;;5095643;28;20039;-61
2021/11/11 10:08:44;;;;;;;0.60;0.20;;;;;;;;;;5101449;28;20033;-62
2021/11/11 10:11:33;;;;;;;0.32;0.10;;;;;;;;;;5094494;28;20554;-61
2021/11/11 10:14:02;;;;;;;1.52;0.30;;;;;;;;;;5096788;28;20039;-62
2021/11/11 10:16:29;;;;;;;1.10;0.05;;;;;;;;;;5099922;28;20393;-61
2021/11/11 10:18:58;;;;;;;2.35;0.10;;;;;;;;;;5098173;28;20028;-61
2021/11/11 10:21:51;;;;;;;0.63;0.13;;;;;;;;;;5093501;28;20023;-61
2021/11/11 10:24:36;;;;;;;0.40;0.10;;;;;;;;;;5092748;28;20027;-61
2021/11/11 10:30:04;;;;;;;1.48;0.35;;;;;;;;;;5094771;28;20028;-61
2021/11/11 10:32:56;;;;;;;3.13;0.10;;;;;;;;;;5102493;28;20636;-61
2021/11/11 10:35:29;;;;;;;0.90;0.30;;;;;;;;;;5095012;28;20126;-61
2021/11/11 10:38:07;;;;;;;0.17;0.10;;;;;;;;;;5098490;28;20106;-61
2021/11/11 10:40:39;;;;;;;1.85;0.10;;;;;;;;;;5093232;28;20440;-61
2021/11/11 10:43:10;;;;;;;0.00;0.00;;;;;;;;;;5094618;28;20012;-61
2021/11/11 10:45:41;;;;;;;0.35;0.00;;;;;;;;;;5094618;28;20111;-61
2021/11/11 10:48:11;;;;;;;0.00;0.00;;;;;;;;;;5094246;28;20112;-61
2021/11/11 10:50:46;;;;;;;0.55;0.35;;;;;;;;;;5095386;28;20019;-61
2021/11/11 10:53:13;;;;;;;0.95;0.10;;;;;;;;;;5094961;28;20028;-61
2021/11/11 10:55:41;;;;;;;0.05;0.00;;;;;;;;;;5091977;28;20042;-61
2021/11/11 10:58:15;;;;;;;0.00;0.00;;;;;;;;;;5093956;28;20039;-62
2021/11/11 11:01:04;;;;;;;0.22;0.00;;;;;;;;;;5100294;28;20028;-61
2021/11/11 11:03:37;;;;;;;0.82;0.00;;;;;;;;;;5091232;28;20034;-61
2021/11/11 11:06:05;;;;;;;0.17;0.10;;;;;;;;;;5093677;28;20028;-62
2021/11/11 11:08:43;;;;;;;0.00;0.00;;;;;;;;;;5101854;28;20538;-62
2021/11/11 11:11:18;;;;;;;0.43;0.00;;;;;;;;;;5094433;28;20126;-62
2021/11/11 11:13:56;;;;;;;0.10;0.10;;;;;;;;;;5093172;28;20067;-62
2021/11/11 11:16:28;;;;;;;0.57;0.20;;;;;;;;;;5076264;28;20470;-61
2021/11/11 11:18:58;;;;;;;0.00;0.00;;;;;;;;;;5099352;28;20262;-61
2021/11/11 11:21:41;;;;;;;1.73;0.10;;;;;;;;;;5101124;28;20260;-61
2021/11/11 11:24:10;;;;;;;0.75;0.20;;;;;;;;;;5091545;28;20088;-61
2021/11/11 11:26:44;;;;;;;0.20;0.00;;;;;;;;;;5096745;28;20081;-61
2021/11/11 11:32:06;;;;;;;1.60;0.52;;;;;;;;;;5094679;28;20032;-60
2021/11/11 11:34:34;;;;;;;0.63;0.25;;;;;;;;;;5097648;28;20648;-60
2021/11/11 11:37:01;;;;;;;2.47;0.45;;;;;;;;;;5099051;28;20250;-61
2021/11/11 11:39:38;;;;;;;6.50;0.70;;;;;;;;;;5095824;28;20103;-62
2021/11/11 11:42:16;;;;;;;0.80;0.15;;;;;;;;;;5096563;28;20023;-61
2021/11/11 11:44:47;;;;;;;1.00;0.13;;;;;;;;;;5095170;28;20226;-61
2021/11/11 11:47:35;;;;;;;1.65;0.32;;;;;;;;;;5097639;28;20051;-62
2021/11/11 11:50:09;;;;;;;4.30;0.20;;;;;;;;;;5095966;28;20028;-60
2021/11/11 11:52:39;;;;;;;0.47;0.20;;;;;;;;;;5094338;28;20027;-61
2021/11/11 12:00:29;;;;;;;0.00;0.00;;;;;;;;;;5098889;28;20067;-60
2021/11/11 12:08:25;;;;;;;0.08;0.00;;;;;;;;;;5101466;28;20450;-60
2021/11/11 12:14:22;;;;;;;0.00;0.00;;;;;;;;;;5095514;28;20076;-59
2021/11/11 12:39:42;;;;;;;1.75;0.00;;;;;;;;;;5097055;28;20497;-60
2021/11/11 12:42:14;;;;;;;0.38;0.10;;;;;;;;;;5093631;28;20027;-61
2021/11/11 12:45:22;;;;;;;0.20;0.08;;;;;;;;;;5082097;28;20031;-60
2021/11/11 12:48:00;;;;;;;2.42;0.10;;;;;;;;;;5027536;28;20032;-61
2021/11/11 12:51:02;;;;;;;3.05;0.28;;;;;;;;;;5021596;28;20036;-60
2021/11/11 12:53:34;;;;;;;6.95;0.22;;;;;;;;;;5077222;28;20031;-61
2021/11/11 12:55:59;;;;;;;2.10;0.20;;;;;;;;;;5094293;28;20020;-60
2021/11/11 12:58:43;;;;;;;4.65;0.40;;;;;;;;;;5095553;28;20029;-60
2021/11/11 13:01:17;;;;;;;3.47;0.40;;;;;;;;;;5073055;28;20036;-60
2021/11/11 13:03:43;;;;;;;3.88;0.10;;;;;;;;;;5091769;28;20046;-60
2021/11/11 13:06:08;;;;;;;3.20;0.20;;;;;;;;;;5093477;28;20032;-61
2021/11/11 13:08:43;;;;;;;2.75;0.15;;;;;;;;;;5099097;27;20043;-61
2021/11/11 13:11:10;;;;;;;1.20;0.20;;;;;;;;;;5098717;28;20506;-60
2021/11/11 13:13:36;;;;;;;4.75;1.00;;;;;;;;;;5099646;28;20032;-61
2021/11/11 13:16:19;;;;;;;2.65;0.10;;;;;;;;;;5098190;28;20093;-61
2021/11/11 13:18:48;;;;;;;3.70;0.20;;;;;;;;;;5091076;28;20028;-61
2021/11/11 13:21:20;;;;;;;2.00;0.20;;;;;;;;;;5091321;28;20038;-61
2021/11/11 16:03:30;;;;;;;8.27;0.77;;;;;;;;;;5091716;28;20039;-61
2021/11/11 16:27:19;;;;;;;6.70;0.80;;;;;;;;;;5070909;28;20062;-61
2021/11/11 16:29:45;;;;;;;7.35;0.98;;;;;;;;;;5095160;28;20687;-61
2021/11/11 16:32:11;;;;;;;6.35;0.68;;;;;;;;;;5093864;28;20036;-61
2021/11/11 16:34:37;;;;;;;5.35;0.93;;;;;;;;;;5091901;28;20040;-61
2021/11/11 16:37:05;;;;;;;7.53;1.23;;;;;;;;;;5097464;28;20046;-61
2021/11/11 16:39:31;;;;;;;6.50;0.90;;;;;;;;;;5092191;28;20036;-61
2021/11/11 16:41:56;;;;;;;5.57;1.95;;;;;;;;;;5099835;28;20065;-61
2021/11/11 16:44:23;;;;;;;7.43;1.17;;;;;;;;;;5092149;28;20106;-61
2021/11/11 16:46:50;;;;;;;3.15;0.90;;;;;;;;;;5096016;28;20051;-61
2021/11/11 16:49:16;;;;;;;5.10;0.98;;;;;;;;;;5096848;28;20069;-61
2021/11/11 16:51:42;;;;;;;6.60;1.13;;;;;;;;;;5092261;28;20288;-61
2021/11/11 16:54:08;;;;;;;6.68;1.02;;;;;;;;;;5091008;28;20093;-61
2021/11/11 16:56:34;;;;;;;3.75;0.75;;;;;;;;;;5091956;28;20040;-61
2021/11/11 16:59:00;;;;;;;6.85;0.85;;;;;;;;;;5092028;28;20024;-62
2021/11/11 17:01:26;;;;;;;6.47;1.33;;;;;;;;;;5096462;28;20185;-61
2021/11/11 17:03:52;;;;;;;4.43;1.15;;;;;;;;;;5090787;28;20102;-61
2021/11/11 17:06:18;;;;;;;7.78;1.42;;;;;;;;;;5096501;28;20110;-62
2021/11/11 17:08:45;;;;;;;10.07;1.20;;;;;;;;;;5099656;28;20126;-61
2021/11/11 17:11:12;;;;;;;2.63;0.90;;;;;;;;;;5081429;28;20043;-61
2021/11/11 17:13:43;;;;;;;4.97;1.40;;;;;;;;;;5090932;28;20036;-62
2021/11/11 17:16:11;;;;;;;;;;;;;;;;;;5089357;28;20142;-61
2021/11/11 17:18:38;;;;;;;6.90;0.90;;;;;;;;;;5095686;28;19926;-61
2021/11/11 17:21:04;;;;;;;5.50;0.88;;;;;;;;;;5098219;28;20445;-61
2021/11/11 17:23:36;;;;;;;7.43;1.10;;;;;;;;;;5094589;28;20434;-62
2021/11/11 17:26:17;;;;;;;4.45;1.02;;;;;;;;;;5095572;28;20085;-61
2021/11/11 17:28:43;;;;;;;6.55;1.27;;;;;;;;;;5099040;28;20549;-62
2021/11/11 17:31:08;;;;;;;8.27;1.15;;;;;;;;;;5094676;28;20110;-61
2021/11/11 17:33:37;;;;;;;9.90;1.25;;;;;;;;;;5092229;28;20165;-61
2021/11/11 17:36:06;;;;;;;9.65;1.70;;;;;;;;;;5089259;28;20024;-61
2021/11/11 17:38:35;;;;;;;5.22;1.63;;;;;;;;;;5095915;28;20462;-62
2021/11/11 17:41:03;;;;;;;9.32;1.63;;;;;;;;;;5098445;28;20032;-61
2021/11/11 17:43:31;;;;;;;11.55;1.77;;;;;;;;;;5091297;28;20050;-61
2021/11/11 17:48:30;;;;;;;11.70;2.20;;;;;;;;;;5090901;28;20031;-61
2021/11/11 17:51:03;;;;;;;9.63;1.42;;;;;;;;;;5100376;28;20103;-62
2021/11/11 17:53:32;;;;;;;10.13;1.63;;;;;;;;;;5094781;28;20254;-61
2021/11/11 17:56:02;;;;;;;11.93;1.83;;;;;;;;;;5095145;28;20391;-62
2021/11/11 17:58:35;;;;;;;7.25;1.50;;;;;;;;;;5098869;28;20103;-62
2021/11/11 18:01:09;;;;;;;7.03;1.52;;;;;;;;;;5094482;28;20072;-61
2021/11/11 18:03:35;;;;;;;6.72;1.50;;;;;;;;;;5090062;28;20028;-61
2021/11/11 18:06:28;;;;;;;8.60;1.30;;;;;;;;;;5091548;28;20051;-61
2021/11/11 18:08:53;;;;;;;6.65;2.10;;;;;;;;;;5079471;28;20043;-61
2021/11/11 18:11:22;;;;;;;9.10;1.58;;;;;;;;;;5089835;28;20043;-62
2021/11/11 18:13:53;;;;;;;8.57;1.25;;;;;;;;;;5096575;27;20043;-61
2021/11/11 18:16:25;;;;;;;18.33;1.73;;;;;;;;;;5104894;28;20027;-61
2021/11/11 18:18:51;;;;;;;8.65;1.88;;;;;;;;;;5094889;28;20449;-61
2021/11/11 18:21:17;;;;;;;10.20;2.30;;;;;;;;;;5097701;28;20087;-62
2021/11/11 18:23:45;;;;;;;9.35;1.80;;;;;;;;;;5093601;28;20040;-61
2021/11/11 18:26:10;;;;;;;9.77;1.88;;;;;;;;;;5100504;28;20027;-61
2021/11/11 18:28:47;;;;;;;18.40;2.10;;;;;;;;;;5106721;27;20031;-62
2021/11/11 18:31:13;;;;;;;7.22;1.60;;;;;;;;;;5094651;28;20061;-61
2021/11/11 18:33:46;;;;;;;12.68;2.03;;;;;;;;;;5101027;28;20664;-61
2021/11/11 18:36:19;;;;;;;11.48;2.65;;;;;;;;;;5107367;28;20063;-59
2021/11/11 18:38:45;;;;;;;9.20;1.88;;;;;;;;;;5101749;28;20035;-61
2021/11/11 18:41:10;;;;;;;7.18;1.63;;;;;;;;;;5101033;28;20043;-60
2021/11/11 18:43:36;;;;;;;2.97;0.93;;;;;;;;;;5102008;28;20035;-60
2021/11/11 18:46:12;;;;;;;5.35;1.30;;;;;;;;;;5097397;28;20024;-60
2021/11/11 18:48:41;;;;;;;13.27;2.15;;;;;;;;;;5094691;28;20032;-61
2021/11/11 18:51:15;;;;;;;9.48;1.60;;;;;;;;;;5097025;28;20034;-59
2021/11/11 18:53:42;;;;;;;4.72;1.42;;;;;;;;;;5096314;28;21119;-59
2021/11/11 18:56:08;;;;;;;5.63;1.58;;;;;;;;;;5094032;27;20028;-59
2021/11/11 18:58:34;;;;;;;10.45;2.45;;;;;;;;;;5096794;28;20035;-59
2021/11/11 19:01:07;;;;;;;6.28;1.65;;;;;;;;;;5096240;27;20035;-59
2021/11/11 19:03:35;;;;;;;;;;;;;;;;;;5099876;27;20114;-59
2021/11/11 19:06:07;;;;;;;5.32;1.98;;;;;;;;;;5103256;27;19912;-59